sensor_id;sensor_type;location;lat;lon;timestamp;pressure;altitude;pressure_sealevel;temperature;humidity
70009;BME280;59542;37.950;-122.338;2023-05-19T00:02:18;101184.47;;;18.59;62.87
70009;BME280;59542;37.950;-122.338;2023-05-19T00:04:45;101183.56;;;18.54;62.51
70009;BME280;59542;37.950;-122.338;2023-05-19T00:07:17;101184.13;;;18.34;63.96
70009;BME280;59542;37.950;-122.338;2023-05-19T00:09:46;101183.81;;;17.80;63.86
70009;BME280;59542;37.950;-122.338;2023-05-19T00:12:13;101171.53;;;18.06;64.29
70009;BME280;59542;37.950;-122.338;2023-05-19T00:14:40;101182.00;;;18.02;63.41
70009;BME280;59542;37.950;-122.338;2023-05-19T00:17:06;101176.13;;;18.05;64.49
70009;BME280;59542;37.950;-122.338;2023-05-19T00:19:33;101173.72;;;18.09;64.28
70009;BME280;59542;37.950;-122.338;2023-05-19T00:21:59;101176.84;;;17.84;65.19
70009;BME280;59542;37.950;-122.338;2023-05-19T00:24:25;101181.97;;;17.68;64.90
70009;BME280;59542;37.950;-122.338;2023-05-19T00:26:52;101177.84;;;17.78;65.86
70009;BME280;59542;37.950;-122.338;2023-05-19T00:29:18;101167.25;;;17.76;65.15
70009;BME280;59542;37.950;-122.338;2023-05-19T00:31:44;101186.41;;;17.58;65.68
70009;BME280;59542;37.950;-122.338;2023-05-19T00:34:10;101184.47;;;17.87;65.70
70009;BME280;59542;37.950;-122.338;2023-05-19T00:36:37;101180.97;;;17.41;65.78
70009;BME280;59542;37.950;-122.338;2023-05-19T00:39:03;101178.00;;;17.42;66.35
70009;BME280;59542;37.950;-122.338;2023-05-19T00:41:29;101178.78;;;17.26;67.12
70009;BME280;59542;37.950;-122.338;2023-05-19T00:43:56;101186.81;;;16.81;67.70
70009;BME280;59542;37.950;-122.338;2023-05-19T00:46:22;101185.91;;;16.40;69.50
70009;BME280;59542;37.950;-122.338;2023-05-19T00:48:48;101184.84;;;16.41;69.65
70009;BME280;59542;37.950;-122.338;2023-05-19T00:51:16;101189.78;;;16.56;70.23
70009;BME280;59542;37.950;-122.338;2023-05-19T00:53:43;101186.84;;;16.57;70.14
70009;BME280;59542;37.950;-122.338;2023-05-19T00:56:14;101180.59;;;16.69;69.37
70009;BME280;59542;37.950;-122.338;2023-05-19T00:58:44;101178.28;;;16.72;70.08
70009;BME280;59542;37.950;-122.338;2023-05-19T01:01:10;101182.59;;;16.85;69.99
70009;BME280;59542;37.950;-122.338;2023-05-19T01:03:39;101180.34;;;16.94;69.97
70009;BME280;59542;37.950;-122.338;2023-05-19T01:06:07;101187.53;;;16.64;69.34
70009;BME280;59542;37.950;-122.338;2023-05-19T01:08:35;101189.41;;;16.52;70.22
70009;BME280;59542;37.950;-122.338;2023-05-19T01:11:06;101180.88;;;16.44;70.52
70009;BME280;59542;37.950;-122.338;2023-05-19T01:13:33;101190.22;;;16.64;70.38
70009;BME280;59542;37.950;-122.338;2023-05-19T01:16:04;101185.78;;;16.47;70.69
70009;BME280;59542;37.950;-122.338;2023-05-19T01:24:12;101181.78;;;16.37;71.88
70009;BME280;59542;37.950;-122.338;2023-05-19T01:31:55;101193.09;;;16.34;71.79
70009;BME280;59542;37.950;-122.338;2023-05-19T01:34:26;101192.25;;;16.57;70.80
70009;BME280;59542;37.950;-122.338;2023-05-19T01:36:54;101190.38;;;16.34;71.13
70009;BME280;59542;37.950;-122.338;2023-05-19T01:39:21;101186.28;;;16.44;71.30
70009;BME280;59542;37.950;-122.338;2023-05-19T01:41:48;101191.31;;;16.40;70.29
70009;BME280;59542;37.950;-122.338;2023-05-19T01:44:15;101191.91;;;16.42;70.53
70009;BME280;59542;37.950;-122.338;2023-05-19T01:46:42;101190.13;;;16.36;70.60
70009;BME280;59542;37.950;-122.338;2023-05-19T01:49:09;101176.28;;;16.56;70.16
70009;BME280;59542;37.950;-122.338;2023-05-19T01:51:35;101182.25;;;16.58;70.13
70009;BME280;59542;37.950;-122.338;2023-05-19T01:54:02;101195.53;;;16.83;70.10
70009;BME280;59542;37.950;-122.338;2023-05-19T01:57:09;101188.84;;;16.74;69.16
70009;BME280;59542;37.950;-122.338;2023-05-19T02:08:56;101204.56;;;16.88;69.25
70009;BME280;59542;37.950;-122.338;2023-05-19T02:14:31;101206.78;;;16.68;70.06
70009;BME280;59542;37.950;-122.338;2023-05-19T02:16:59;101206.13;;;16.73;69.40
70009;BME280;59542;37.950;-122.338;2023-05-19T02:19:33;101209.75;;;16.43;70.85
70009;BME280;59542;37.950;-122.338;2023-05-19T02:22:00;101199.44;;;16.40;70.51
70009;BME280;59542;37.950;-122.338;2023-05-19T02:24:26;101200.34;;;16.57;69.87
70009;BME280;59542;37.950;-122.338;2023-05-19T02:26:53;101207.38;;;16.58;69.45
70009;BME280;59542;37.950;-122.338;2023-05-19T02:29:20;101200.44;;;16.86;68.35
70009;BME280;59542;37.950;-122.338;2023-05-19T02:31:46;101203.19;;;17.14;68.02
70009;BME280;59542;37.950;-122.338;2023-05-19T02:34:13;101199.50;;;17.21;67.10
70009;BME280;59542;37.950;-122.338;2023-05-19T02:36:40;101209.13;;;17.28;66.90
70009;BME280;59542;37.950;-122.338;2023-05-19T02:39:10;101195.75;;;16.81;67.70
70009;BME280;59542;37.950;-122.338;2023-05-19T02:41:37;101196.56;;;16.82;68.55
70009;BME280;59542;37.950;-122.338;2023-05-19T02:44:04;101200.31;;;16.69;68.52
70009;BME280;59542;37.950;-122.338;2023-05-19T02:46:30;101200.59;;;16.56;69.16
70009;BME280;59542;37.950;-122.338;2023-05-19T02:48:56;101192.16;;;16.17;70.03
70009;BME280;59542;37.950;-122.338;2023-05-19T02:51:23;101187.63;;;15.76;72.41
70009;BME280;59542;37.950;-122.338;2023-05-19T02:53:49;101190.94;;;15.59;72.89
70009;BME280;59542;37.950;-122.338;2023-05-19T02:56:15;101189.03;;;15.48;73.75
70009;BME280;59542;37.950;-122.338;2023-05-19T02:58:42;101192.00;;;15.17;75.46
70009;BME280;59542;37.950;-122.338;2023-05-19T03:01:08;101199.84;;;15.18;76.10
70009;BME280;59542;37.950;-122.338;2023-05-19T03:03:35;101212.41;;;15.24;75.57
70009;BME280;59542;37.950;-122.338;2023-05-19T03:06:02;101217.56;;;15.26;75.35
70009;BME280;59542;37.950;-122.338;2023-05-19T03:08:28;101209.28;;;15.27;75.27
70009;BME280;59542;37.950;-122.338;2023-05-19T03:10:54;101220.84;;;15.16;76.14
70009;BME280;59542;37.950;-122.338;2023-05-19T03:13:20;101208.50;;;14.90;77.33
70009;BME280;59542;37.950;-122.338;2023-05-19T03:15:47;101206.09;;;14.82;77.81
70009;BME280;59542;37.950;-122.338;2023-05-19T03:18:15;101222.41;;;14.69;78.28
70009;BME280;59542;37.950;-122.338;2023-05-19T03:20:42;101224.13;;;14.63;78.44
70009;BME280;59542;37.950;-122.338;2023-05-19T03:23:09;101228.63;;;14.51;79.36
70009;BME280;59542;37.950;-122.338;2023-05-19T03:25:36;101226.75;;;14.51;79.27
70009;BME280;59542;37.950;-122.338;2023-05-19T03:28:02;101229.25;;;14.46;79.82
70009;BME280;59542;37.950;-122.338;2023-05-19T03:30:28;101225.53;;;14.47;79.88
70009;BME280;59542;37.950;-122.338;2023-05-19T03:32:54;101223.66;;;14.23;80.91
70009;BME280;59542;37.950;-122.338;2023-05-19T03:35:21;101228.59;;;14.26;80.79
70009;BME280;59542;37.950;-122.338;2023-05-19T03:37:47;101220.00;;;14.17;81.50
70009;BME280;59542;37.950;-122.338;2023-05-19T03:40:13;101222.94;;;14.09;82.13
70009;BME280;59542;37.950;-122.338;2023-05-19T03:42:40;101227.50;;;14.09;82.03
70009;BME280;59542;37.950;-122.338;2023-05-19T03:45:07;101236.19;;;14.11;82.08
70009;BME280;59542;37.950;-122.338;2023-05-19T03:47:33;101248.22;;;14.08;81.89
70009;BME280;59542;37.950;-122.338;2023-05-19T03:49:59;101244.13;;;13.99;82.03
70009;BME280;59542;37.950;-122.338;2023-05-19T03:52:26;101240.38;;;14.07;81.66
70009;BME280;59542;37.950;-122.338;2023-05-19T03:54:53;101238.75;;;13.99;81.89
70009;BME280;59542;37.950;-122.338;2023-05-19T03:57:19;101245.88;;;13.87;82.72
70009;BME280;59542;37.950;-122.338;2023-05-19T03:59:46;101251.31;;;13.80;82.99
70009;BME280;59542;37.950;-122.338;2023-05-19T04:02:12;101251.53;;;13.79;83.16
70009;BME280;59542;37.950;-122.338;2023-05-19T04:04:38;101258.00;;;13.71;83.76
70009;BME280;59542;37.950;-122.338;2023-05-19T04:07:04;101247.72;;;13.61;84.00
70009;BME280;59542;37.950;-122.338;2023-05-19T04:09:31;101257.66;;;13.61;84.14
70009;BME280;59542;37.950;-122.338;2023-05-19T04:12:00;101255.47;;;13.44;85.28
70009;BME280;59542;37.950;-122.338;2023-05-19T04:14:30;101252.69;;;13.58;84.58
70009;BME280;59542;37.950;-122.338;2023-05-19T04:16:56;101265.75;;;13.54;84.79
70009;BME280;59542;37.950;-122.338;2023-05-19T04:19:22;101266.03;;;13.39;85.50
70009;BME280;59542;37.950;-122.338;2023-05-19T04:21:49;101266.63;;;13.41;85.29
70009;BME280;59542;37.950;-122.338;2023-05-19T04:24:15;101263.31;;;13.46;84.76
70009;BME280;59542;37.950;-122.338;2023-05-19T04:26:41;101263.94;;;13.41;84.72
70009;BME280;59542;37.950;-122.338;2023-05-19T04:29:11;101253.91;;;13.17;85.76
70009;BME280;59542;37.950;-122.338;2023-05-19T04:31:41;101262.16;;;13.29;85.24
70009;BME280;59542;37.950;-122.338;2023-05-19T04:34:09;101261.16;;;13.16;85.93
70009;BME280;59542;37.950;-122.338;2023-05-19T04:36:36;101263.00;;;13.23;85.32
70009;BME280;59542;37.950;-122.338;2023-05-19T04:39:03;101266.53;;;13.23;85.63
70009;BME280;59542;37.950;-122.338;2023-05-19T04:41:32;101265.91;;;13.14;86.16
70009;BME280;59542;37.950;-122.338;2023-05-19T04:43:59;101276.00;;;13.19;85.87
70009;BME280;59542;37.950;-122.338;2023-05-19T04:46:26;101273.34;;;13.12;86.22
70009;BME280;59542;37.950;-122.338;2023-05-19T04:48:54;101272.72;;;13.17;85.95
70009;BME280;59542;37.950;-122.338;2023-05-19T04:51:22;101272.75;;;13.10;86.15
70009;BME280;59542;37.950;-122.338;2023-05-19T04:53:56;101277.28;;;13.10;86.27
70009;BME280;59542;37.950;-122.338;2023-05-19T04:56:22;101272.75;;;13.04;86.49
70009;BME280;59542;37.950;-122.338;2023-05-19T04:58:49;101284.34;;;12.98;86.82
70009;BME280;59542;37.950;-122.338;2023-05-19T05:01:15;101276.31;;;12.91;87.23
70009;BME280;59542;37.950;-122.338;2023-05-19T05:03:41;101274.88;;;12.88;87.39
70009;BME280;59542;37.950;-122.338;2023-05-19T05:06:08;101280.66;;;12.85;87.62
70009;BME280;59542;37.950;-122.338;2023-05-19T05:08:35;101288.28;;;12.95;86.58
70009;BME280;59542;37.950;-122.338;2023-05-19T05:11:05;101292.66;;;12.89;86.92
70009;BME280;59542;37.950;-122.338;2023-05-19T05:13:31;101294.09;;;12.85;87.54
70009;BME280;59542;37.950;-122.338;2023-05-19T05:15:57;101291.41;;;12.85;87.35
70009;BME280;59542;37.950;-122.338;2023-05-19T05:18:24;101293.88;;;12.87;87.35
70009;BME280;59542;37.950;-122.338;2023-05-19T05:20:52;101292.03;;;12.94;86.76
70009;BME280;59542;37.950;-122.338;2023-05-19T05:23:19;101293.47;;;12.90;87.31
70009;BME280;59542;37.950;-122.338;2023-05-19T05:25:46;101287.91;;;12.78;87.93
70009;BME280;59542;37.950;-122.338;2023-05-19T05:28:12;101296.78;;;12.85;87.24
70009;BME280;59542;37.950;-122.338;2023-05-19T05:30:38;101302.16;;;12.85;87.38
70009;BME280;59542;37.950;-122.338;2023-05-19T05:33:06;101301.94;;;12.80;87.65
70009;BME280;59542;37.950;-122.338;2023-05-19T05:35:32;101310.44;;;12.71;88.05
70009;BME280;59542;37.950;-122.338;2023-05-19T05:37:58;101315.38;;;12.80;87.53
70009;BME280;59542;37.950;-122.338;2023-05-19T05:40:26;101304.44;;;12.75;87.91
70009;BME280;59542;37.950;-122.338;2023-05-19T05:42:52;101306.91;;;12.70;88.08
70009;BME280;59542;37.950;-122.338;2023-05-19T05:45:23;101319.94;;;12.73;87.98
70009;BME280;59542;37.950;-122.338;2023-05-19T05:47:50;101316.63;;;12.78;87.61
70009;BME280;59542;37.950;-122.338;2023-05-19T05:50:17;101307.56;;;12.72;87.77
70009;BME280;59542;37.950;-122.338;2023-05-19T05:52:47;101320.16;;;12.72;88.00
70009;BME280;59542;37.950;-122.338;2023-05-19T05:55:14;101306.31;;;12.68;88.23
70009;BME280;59542;37.950;-122.338;2023-05-19T05:57:42;101307.16;;;12.62;88.60
70009;BME280;59542;37.950;-122.338;2023-05-19T06:00:08;101305.50;;;12.61;88.41
70009;BME280;59542;37.950;-122.338;2023-05-19T06:02:45;101305.47;;;12.54;88.63
70009;BME280;59542;37.950;-122.338;2023-05-19T06:05:12;101307.56;;;12.59;88.16
70009;BME280;59542;37.950;-122.338;2023-05-19T06:07:41;101311.50;;;12.56;88.68
70009;BME280;59542;37.950;-122.338;2023-05-19T06:10:08;101310.88;;;12.61;88.27
70009;BME280;59542;37.950;-122.338;2023-05-19T06:12:35;101319.94;;;12.60;88.02
70009;BME280;59542;37.950;-122.338;2023-05-19T06:15:05;101319.94;;;12.53;88.52
70009;BME280;59542;37.950;-122.338;2023-05-19T06:17:32;101321.81;;;12.53;88.08
70009;BME280;59542;37.950;-122.338;2023-05-19T06:20:01;101327.78;;;12.48;88.41
70009;BME280;59542;37.950;-122.338;2023-05-19T06:22:28;101322.03;;;12.45;88.87
70009;BME280;59542;37.950;-122.338;2023-05-19T06:24:54;101317.69;;;12.37;89.34
70009;BME280;59542;37.950;-122.338;2023-05-19T06:27:20;101321.63;;;12.34;89.60
70009;BME280;59542;37.950;-122.338;2023-05-19T06:29:46;101323.88;;;12.31;89.93
70009;BME280;59542;37.950;-122.338;2023-05-19T06:32:12;101323.25;;;12.29;89.85
70009;BME280;59542;37.950;-122.338;2023-05-19T06:34:39;101331.91;;;12.37;89.88
70009;BME280;59542;37.950;-122.338;2023-05-19T06:37:05;101335.25;;;12.33;89.88
70009;BME280;59542;37.950;-122.338;2023-05-19T06:39:31;101324.69;;;12.18;90.45
70009;BME280;59542;37.950;-122.338;2023-05-19T06:41:58;101322.63;;;12.27;89.97
70009;BME280;59542;37.950;-122.338;2023-05-19T06:44:24;101321.81;;;12.33;89.77
70009;BME280;59542;37.950;-122.338;2023-05-19T06:46:50;101328.63;;;12.29;90.21
70009;BME280;59542;37.950;-122.338;2023-05-19T06:49:16;101320.97;;;12.32;90.18
70009;BME280;59542;37.950;-122.338;2023-05-19T06:51:43;101324.09;;;12.36;89.94
70009;BME280;59542;37.950;-122.338;2023-05-19T06:54:09;101318.09;;;12.34;90.25
70009;BME280;59542;37.950;-122.338;2023-05-19T06:56:40;101324.28;;;12.28;90.54
70009;BME280;59542;37.950;-122.338;2023-05-19T06:59:06;101328.63;;;12.22;90.28
70009;BME280;59542;37.950;-122.338;2023-05-19T07:01:33;101326.34;;;12.19;90.73
70009;BME280;59542;37.950;-122.338;2023-05-19T07:03:59;101321.41;;;12.23;90.73
70009;BME280;59542;37.950;-122.338;2023-05-19T07:06:25;101315.81;;;12.11;91.16
70009;BME280;59542;37.950;-122.338;2023-05-19T07:08:51;101321.78;;;12.06;91.27
70009;BME280;59542;37.950;-122.338;2023-05-19T07:11:18;101320.53;;;12.15;90.91
70009;BME280;59542;37.950;-122.338;2023-05-19T07:13:44;101322.19;;;12.10;91.35
70009;BME280;59542;37.950;-122.338;2023-05-19T07:16:10;101322.41;;;12.15;90.60
70009;BME280;59542;37.950;-122.338;2023-05-19T07:18:36;101331.09;;;12.17;90.73
70009;BME280;59542;37.950;-122.338;2023-05-19T07:21:02;101336.03;;;12.07;91.14
70009;BME280;59542;37.950;-122.338;2023-05-19T07:23:29;101337.88;;;12.00;91.54
70009;BME280;59542;37.950;-122.338;2023-05-19T07:25:55;101329.84;;;12.06;91.28
70009;BME280;59542;37.950;-122.338;2023-05-19T07:28:21;101319.50;;;11.97;91.95
70009;BME280;59542;37.950;-122.338;2023-05-19T07:30:47;101319.91;;;12.00;92.31
70009;BME280;59542;37.950;-122.338;2023-05-19T07:33:14;101325.28;;;12.07;92.00
70009;BME280;59542;37.950;-122.338;2023-05-19T07:35:40;101321.34;;;11.96;92.44
70009;BME280;59542;37.950;-122.338;2023-05-19T07:38:07;101320.97;;;12.06;92.27
70009;BME280;59542;37.950;-122.338;2023-05-19T07:40:33;101318.06;;;12.01;92.36
70009;BME280;59542;37.950;-122.338;2023-05-19T07:42:59;101316.38;;;11.93;92.99
70009;BME280;59542;37.950;-122.338;2023-05-19T07:45:25;101312.06;;;11.99;93.10
70009;BME280;59542;37.950;-122.338;2023-05-19T07:47:53;101315.38;;;12.01;93.21
70009;BME280;59542;37.950;-122.338;2023-05-19T07:50:19;101313.53;;;12.08;92.25
70009;BME280;59542;37.950;-122.338;2023-05-19T07:52:45;101313.97;;;12.11;92.14
70009;BME280;59542;37.950;-122.338;2023-05-19T07:55:12;101313.50;;;11.95;93.50
70009;BME280;59542;37.950;-122.338;2023-05-19T07:57:39;101317.41;;;11.99;93.44
70009;BME280;59542;37.950;-122.338;2023-05-19T08:00:07;101312.69;;;12.01;93.46
70009;BME280;59542;37.950;-122.338;2023-05-19T08:02:36;101319.50;;;12.10;92.72
70009;BME280;59542;37.950;-122.338;2023-05-19T08:05:02;101315.81;;;12.11;93.05
70009;BME280;59542;37.950;-122.338;2023-05-19T08:07:29;101313.75;;;12.13;92.54
70009;BME280;59542;37.950;-122.338;2023-05-19T08:09:55;101317.84;;;12.09;93.22
70009;BME280;59542;37.950;-122.338;2023-05-19T08:12:21;101312.09;;;12.12;93.04
70009;BME280;59542;37.950;-122.338;2023-05-19T08:14:48;101325.50;;;12.12;92.57
70009;BME280;59542;37.950;-122.338;2023-05-19T08:17:14;101321.41;;;12.16;92.16
70009;BME280;59542;37.950;-122.338;2023-05-19T08:19:40;101310.03;;;12.14;92.60
70009;BME280;59542;37.950;-122.338;2023-05-19T08:22:07;101313.31;;;12.09;92.27
70009;BME280;59542;37.950;-122.338;2023-05-19T08:24:33;101316.81;;;12.10;92.13
70009;BME280;59542;37.950;-122.338;2023-05-19T08:26:59;101308.81;;;12.17;92.23
70009;BME280;59542;37.950;-122.338;2023-05-19T08:29:25;101312.91;;;12.19;92.11
70009;BME280;59542;37.950;-122.338;2023-05-19T08:31:52;101314.16;;;12.17;92.05
70009;BME280;59542;37.950;-122.338;2023-05-19T08:34:19;101312.72;;;12.14;92.23
70009;BME280;59542;37.950;-122.338;2023-05-19T08:36:45;101309.63;;;12.10;92.56
70009;BME280;59542;37.950;-122.338;2023-05-19T08:39:12;101301.38;;;12.12;93.44
70009;BME280;59542;37.950;-122.338;2023-05-19T08:41:40;101303.44;;;12.17;92.60
70009;BME280;59542;37.950;-122.338;2023-05-19T08:44:07;101310.22;;;12.12;92.56
70009;BME280;59542;37.950;-122.338;2023-05-19T08:46:34;101310.03;;;12.14;92.47
70009;BME280;59542;37.950;-122.338;2023-05-19T08:49:10;101313.75;;;12.13;92.50
70009;BME280;59542;37.950;-122.338;2023-05-19T08:54:21;101310.03;;;12.01;92.55
70009;BME280;59542;37.950;-122.338;2023-05-19T08:56:50;101310.84;;;12.08;92.23
70009;BME280;59542;37.950;-122.338;2023-05-19T08:59:17;101299.28;;;11.94;93.47
70009;BME280;59542;37.950;-122.338;2023-05-19T09:01:45;101302.97;;;11.93;93.40
70009;BME280;59542;37.950;-122.338;2023-05-19T09:04:12;101299.66;;;11.91;94.13
70009;BME280;59542;37.950;-122.338;2023-05-19T09:06:38;101298.25;;;11.88;94.20
70009;BME280;59542;37.950;-122.338;2023-05-19T09:09:09;101302.16;;;11.93;93.84
70009;BME280;59542;37.950;-122.338;2023-05-19T09:11:36;101301.31;;;11.92;94.11
70009;BME280;59542;37.950;-122.338;2023-05-19T09:14:03;101303.19;;;11.98;93.50
70009;BME280;59542;37.950;-122.338;2023-05-19T09:16:30;101303.19;;;11.92;93.59
70009;BME280;59542;37.950;-122.338;2023-05-19T09:18:57;101302.78;;;11.95;93.60
70009;BME280;59542;37.950;-122.338;2023-05-19T09:21:31;101287.69;;;11.94;93.62
70009;BME280;59542;37.950;-122.338;2023-05-19T09:24:04;101287.72;;;12.00;93.29
70009;BME280;59542;37.950;-122.338;2023-05-19T09:26:41;101301.53;;;12.04;93.12
70009;BME280;59542;37.950;-122.338;2023-05-19T09:29:15;101293.50;;;11.97;93.10
70009;BME280;59542;37.950;-122.338;2023-05-19T09:31:53;101284.63;;;11.97;93.23
70009;BME280;59542;37.950;-122.338;2023-05-19T09:34:29;101281.94;;;12.03;92.39
70009;BME280;59542;37.950;-122.338;2023-05-19T09:36:55;101288.16;;;12.10;92.74
70009;BME280;59542;37.950;-122.338;2023-05-19T09:39:24;101287.72;;;12.20;91.95
70009;BME280;59542;37.950;-122.338;2023-05-19T09:41:52;101283.19;;;12.01;92.94
70009;BME280;59542;37.950;-122.338;2023-05-19T09:44:22;101280.91;;;11.98;92.61
70009;BME280;59542;37.950;-122.338;2023-05-19T09:46:52;101282.16;;;11.88;93.00
70009;BME280;59542;37.950;-122.338;2023-05-19T09:49:20;101288.56;;;12.01;92.69
70009;BME280;59542;37.950;-122.338;2023-05-19T09:51:56;101290.19;;;12.02;93.76
70009;BME280;59542;37.950;-122.338;2023-05-19T09:54:24;101290.41;;;12.07;93.47
70009;BME280;59542;37.950;-122.338;2023-05-19T09:57:03;101284.66;;;12.17;92.86
70009;BME280;59542;37.950;-122.338;2023-05-19T09:59:32;101275.34;;;12.12;91.83
70009;BME280;59542;37.950;-122.338;2023-05-19T10:01:59;101288.97;;;12.18;91.67
70009;BME280;59542;37.950;-122.338;2023-05-19T10:04:28;101279.28;;;12.23;90.85
70009;BME280;59542;37.950;-122.338;2023-05-19T10:06:55;101279.47;;;12.08;91.55
70009;BME280;59542;37.950;-122.338;2023-05-19T10:09:26;101283.41;;;12.12;91.80
70009;BME280;59542;37.950;-122.338;2023-05-19T10:11:57;101274.72;;;12.04;92.71
70009;BME280;59542;37.950;-122.338;2023-05-19T10:14:27;101284.00;;;12.08;93.39
70009;BME280;59542;37.950;-122.338;2023-05-19T10:16:58;101280.50;;;12.21;92.96
70009;BME280;59542;37.950;-122.338;2023-05-19T10:19:26;101289.19;;;12.23;92.06
70009;BME280;59542;37.950;-122.338;2023-05-19T10:21:53;101281.53;;;12.20;92.08
70009;BME280;59542;37.950;-122.338;2023-05-19T10:24:20;101291.06;;;12.22;91.92
70009;BME280;59542;37.950;-122.338;2023-05-19T10:27:13;101296.00;;;12.19;92.47
70009;BME280;59542;37.950;-122.338;2023-05-19T10:29:45;101295.56;;;12.15;92.52
70009;BME280;59542;37.950;-122.338;2023-05-19T10:32:16;101298.47;;;12.20;92.11
70009;BME280;59542;37.950;-122.338;2023-05-19T10:41:06;101299.28;;;12.07;92.29
70009;BME280;59542;37.950;-122.338;2023-05-19T10:46:30;101287.53;;;12.02;92.63
70009;BME280;59542;37.950;-122.338;2023-05-19T10:48:56;101289.16;;;12.09;92.31
70009;BME280;59542;37.950;-122.338;2023-05-19T10:51:32;101298.06;;;12.17;91.88
70009;BME280;59542;37.950;-122.338;2023-05-19T10:54:02;101306.31;;;12.15;91.97
70009;BME280;59542;37.950;-122.338;2023-05-19T10:56:33;101299.91;;;12.09;92.16
70009;BME280;59542;37.950;-122.338;2023-05-19T10:59:01;101293.31;;;12.19;91.78
70009;BME280;59542;37.950;-122.338;2023-05-19T11:01:35;101302.78;;;12.01;92.69
70009;BME280;59542;37.950;-122.338;2023-05-19T11:04:07;101306.09;;;12.03;92.99
70009;BME280;59542;37.950;-122.338;2023-05-19T11:06:37;101302.19;;;12.06;92.90
70009;BME280;59542;37.950;-122.338;2023-05-19T11:09:15;101315.81;;;12.11;92.57
70009;BME280;59542;37.950;-122.338;2023-05-19T11:11:47;101306.53;;;12.13;92.63
70009;BME280;59542;37.950;-122.338;2023-05-19T11:14:17;101312.09;;;12.12;92.66
70009;BME280;59542;37.950;-122.338;2023-05-19T11:16:49;101306.50;;;12.07;93.28
70009;BME280;59542;37.950;-122.338;2023-05-19T11:19:27;101309.41;;;12.12;93.17
70009;BME280;59542;37.950;-122.338;2023-05-19T11:21:54;101301.75;;;12.09;93.08
70009;BME280;59542;37.950;-122.338;2023-05-19T11:27:26;101318.50;;;12.11;92.99
70009;BME280;59542;37.950;-122.338;2023-05-19T11:29:54;101322.41;;;12.08;92.63
70009;BME280;59542;37.950;-122.338;2023-05-19T11:32:25;101322.59;;;12.00;92.76
70009;BME280;59542;37.950;-122.338;2023-05-19T11:34:54;101326.72;;;12.03;93.17
70009;BME280;59542;37.950;-122.338;2023-05-19T11:37:20;101330.63;;;11.94;93.59
70009;BME280;59542;37.950;-122.338;2023-05-19T11:39:47;101330.22;;;11.97;93.35
70009;BME280;59542;37.950;-122.338;2023-05-19T11:42:13;101330.97;;;11.77;94.54
70009;BME280;59542;37.950;-122.338;2023-05-19T11:44:39;101328.34;;;11.84;94.42
70009;BME280;59542;37.950;-122.338;2023-05-19T11:47:06;101329.63;;;11.95;94.14
70009;BME280;59542;37.950;-122.338;2023-05-19T11:49:33;101325.25;;;11.94;94.55
70009;BME280;59542;37.950;-122.338;2023-05-19T11:51:59;101327.75;;;11.88;94.48
70009;BME280;59542;37.950;-122.338;2023-05-19T11:54:30;101328.13;;;11.85;94.54
70009;BME280;59542;37.950;-122.338;2023-05-19T11:57:00;101330.00;;;11.92;94.13
70009;BME280;59542;37.950;-122.338;2023-05-19T11:59:31;101324.47;;;12.00;93.54
70009;BME280;59542;37.950;-122.338;2023-05-19T12:02:17;101326.28;;;11.93;94.58
70009;BME280;59542;37.950;-122.338;2023-05-19T12:04:44;101322.78;;;11.85;94.71
70009;BME280;59542;37.950;-122.338;2023-05-19T12:07:11;101320.75;;;11.94;94.88
70009;BME280;59542;37.950;-122.338;2023-05-19T12:09:38;101328.78;;;12.01;94.83
70009;BME280;59542;37.950;-122.338;2023-05-19T12:12:05;101326.72;;;11.89;94.85
70009;BME280;59542;37.950;-122.338;2023-05-19T12:14:32;101335.81;;;12.02;93.85
70009;BME280;59542;37.950;-122.338;2023-05-19T12:17:09;101342.00;;;11.96;94.11
70009;BME280;59542;37.950;-122.338;2023-05-19T12:19:36;101340.28;;;11.81;94.72
70009;BME280;59542;37.950;-122.338;2023-05-19T12:22:02;101331.63;;;11.86;94.25
70009;BME280;59542;37.950;-122.338;2023-05-19T12:24:28;101337.81;;;11.86;93.73
70009;BME280;59542;37.950;-122.338;2023-05-19T12:27:10;101329.00;;;12.06;92.68
70009;BME280;59542;37.950;-122.338;2023-05-19T12:29:40;101334.78;;;12.03;92.61
70009;BME280;59542;37.950;-122.338;2023-05-19T12:32:07;101339.69;;;11.86;94.08
70009;BME280;59542;37.950;-122.338;2023-05-19T12:34:37;101339.06;;;11.84;94.94
70009;BME280;59542;37.950;-122.338;2023-05-19T12:37:06;101338.66;;;11.94;94.18
70009;BME280;59542;37.950;-122.338;2023-05-19T12:39:33;101349.59;;;11.85;93.61
70009;BME280;59542;37.950;-122.338;2023-05-19T12:42:03;101358.22;;;11.81;93.60
70009;BME280;59542;37.950;-122.338;2023-05-19T12:44:29;101356.53;;;11.73;94.11
70009;BME280;59542;37.950;-122.338;2023-05-19T12:46:58;101361.09;;;11.73;94.29
70009;BME280;59542;37.950;-122.338;2023-05-19T12:49:25;101371.81;;;11.79;94.15
70009;BME280;59542;37.950;-122.338;2023-05-19T12:51:54;101360.66;;;11.76;94.21
70009;BME280;59542;37.950;-122.338;2023-05-19T12:54:23;101353.22;;;11.71;94.34
70009;BME280;59542;37.950;-122.338;2023-05-19T12:56:50;101364.34;;;11.68;94.86
70009;BME280;59542;37.950;-122.338;2023-05-19T12:59:23;101375.91;;;11.69;94.99
70009;BME280;59542;37.950;-122.338;2023-05-19T13:01:58;101367.88;;;11.69;95.01
70009;BME280;59542;37.950;-122.338;2023-05-19T13:04:27;101370.53;;;11.69;94.74